Weather at Montreal / Vieux Port [CLOSED]

Public forecast

Using degrees Celsius for public forecast. Weather courtesy of forecast.io.

Closest aviation weather report (METAR) to Montreal / Vieux Port

Closest report is Montréal / Saint-Hubert Airport, 5.5 nm (10.2 km) E.

2024/05/20 05:00 (retrieved 1 hour ago)

CYHU 200500Z AUTO 15004KT 9SM CLR 17/13 A2995 RMK SLP143 DENSITY ALT 300FT

Closest aviation forecast (TAF) to Montreal / Vieux Port

Closest forecast is Montréal / Saint-Hubert Airport, 5.5 nm (10.2 km) E.

2024/05/20 06:42 (retrieved 0 seconds ago)

TAF CYHU 200540Z 2006/2106 17007KT P6SM SKC FM201000 20008KT P6SM SCT060 FM201600 24012KT P6SM SCT200 BECMG 2022/2024 24008KT FM210500 23007KT P6SM BKN190 RMK FCST BASED ON AUTO OBS NXT FCST BY 201200Z